Alden, KS

12:45 AM CST on February 10, 2016 (GMT -0600)
Huntsville | | Change Station
CLOSE
Current Station
Personal Weather Station
Location: Sterling, KS
Elevation: 1762 ft
Nearby Weather Stations

Elev 1762 ft 38.09 °N, 98.33 °W | Updated 9 seconds ago

Partly Cloudy
Partly Cloudy
29.3 °F
Feels Like 22 °F
N
6.7
Wind Variable Wind from SW
Gusts 7.4 mph

Today
High -- | Low -- °F
--% Chance of Precip.
Yesterday
High -- | Low -- °F
Precip. -- in
Pressure 30.28 in
Visibility 10.0 miles
Clouds Mostly Cloudy 8000 ft
Windchill 22 °F
Dew Point -1 °F
Humidity 26%
Rainfall 0.00 in
Snow Depth Not available.
7:29 AM 6:05 PM
Waxing Crescent, 4% visible
METAR KHUT 100552Z AUTO 17004KT 10SM BKN080 M03/M08 A3026 RMK AO2 SLP253 T10281083 10017 21044 400561044 56013
Pressure 30.28 in
Visibility 10.0 miles
Clouds Mostly Cloudy 8000 ft
Windchill 22 °F
Dew Point -1 °F
Humidity 26%
Rainfall 0.00 in
Snow Depth Not available.
7:29 AM 6:05 PM
Waxing Crescent, 4% visible
METAR KHUT 100552Z AUTO 17004KT 10SM BKN080 M03/M08 A3026 RMK AO2 SLP253 T10281083 10017 21044 400561044 56013

10-Day Weather Forecast

Almanac

Astronomy

Feb. 10, 2016 Rise Set
Actual Time
Civil Twilight
Nautical Twilight
Astronomical Twilight
Moon
Length of Visible Light
Length of Day
Tomorrow will be .
, % of the Moon is Illuminated

Today's Extremes

State Highs State Lows

Community

WunderPhotos

Upload Photos

1,891,826 photos uploaded!

WunderBlog® & News

Nearby

Air Quality

  Air Quality AQ Index Pollutant
Not available.

Snow Depth

Station Depth Elevation

Earthquake Activity

City Distance Mag. Time & Date
Minimum magnitude displayed is 2.5.

Coastal Water Temperatures

Place Temperature

Stations

Nearby Weather Stations

Station Location Temp. Windchill Dew Point Humidity Wind Precip. Elev Updated Type
                   

Watches & Warnings

There are currently no watches in effect.